Time;durP1;ratioP1;P1;durP2;ratioP2;P2;SDS_P1;SDS_P2;PMS_P1;PMS_P2;Temp;Humidity;BMP_temperature;BMP_pressure;BME280_temperature;BME280_humidity;BME280_pressure;Samples;Min_cycle;Max_cycle;Signal;HPM_P1;HPM_P2
2022/08/15 00:01:06;;;;;;;4.65;2.30;;;;;;;23.06;52.87;97700.97;5033286;28;20025;-72
2022/08/15 00:03:40;;;;;;;4.28;1.95;;;;;;;22.86;53.47;97691.19;5064635;28;20034;-71
2022/08/15 00:06:11;;;;;;;4.18;2.35;;;;;;;22.83;54.76;97694.56;5032941;28;20030;-72
2022/08/15 00:08:41;;;;;;;5.00;2.25;;;;;;;22.70;55.54;97695.41;5032630;28;20029;-71
2022/08/15 00:11:18;;;;;;;11.43;2.85;;;;;;;22.57;55.39;97682.47;5032384;28;20026;-71
2022/08/15 00:13:47;;;;;;;4.43;2.60;;;;;;;22.68;56.09;97701.22;5030197;28;20025;-71
2022/08/15 00:16:15;;;;;;;5.60;2.17;;;;;;;22.62;57.36;97702.47;5032685;28;20041;-71
2022/08/15 00:18:42;;;;;;;6.32;1.95;;;;;;;22.53;57.80;97699.63;5027242;28;20034;-71
2022/08/15 00:21:09;;;;;;;6.20;2.50;;;;;;;22.52;57.01;97708.22;5031232;28;20390;-71
2022/08/15 00:23:34;;;;;;;4.70;2.60;;;;;;;22.46;56.99;97699.22;5032252;28;20025;-72
2022/08/15 00:26:01;;;;;;;5.43;2.55;;;;;;;22.47;57.38;97697.28;5031481;28;20399;-71
2022/08/15 00:28:29;;;;;;;3.35;2.28;;;;;;;22.51;57.46;97685.34;5032210;28;20047;-72
2022/08/15 00:30:55;;;;;;;5.67;2.57;;;;;;;22.54;60.08;97704.00;5065441;28;20482;-72
2022/08/15 00:33:20;;;;;;;4.25;2.08;;;;;;;22.50;60.30;97697.47;5030469;28;20024;-72
2022/08/15 00:35:49;;;;;;;4.40;2.55;;;;;;;22.46;60.34;97698.41;5035165;28;20044;-71
2022/08/15 00:38:18;;;;;;;4.03;2.40;;;;;;;22.30;61.61;97681.41;5031618;28;20108;-72
2022/08/15 00:43:33;;;;;;;10.40;2.45;;;;;;;22.30;62.09;97704.25;5026942;28;20056;-72
2022/08/15 00:45:59;;;;;;;6.63;2.72;;;;;;;22.31;61.54;97707.81;5032128;28;20048;-71
2022/08/15 00:48:43;;;;;;;7.05;2.60;;;;;;;22.29;62.48;97704.53;5031932;28;20067;-73
2022/08/15 00:51:30;;;;;;;4.45;2.17;;;;;;;22.24;62.97;97702.72;5031139;28;20025;-71
2022/08/15 00:54:10;;;;;;;5.20;2.60;;;;;;;22.22;63.52;97704.16;5036568;28;20025;-70
2022/08/15 00:56:41;;;;;;;7.68;2.60;;;;;;;22.19;63.87;97697.31;5022878;28;20132;-71
2022/08/15 00:59:10;;;;;;;5.68;2.50;;;;;;;22.09;63.92;97694.75;5032017;28;20029;-71
2022/08/15 01:01:36;;;;;;;6.78;2.40;;;;;;;22.12;63.64;97693.31;5031519;28;20095;-70
2022/08/15 01:04:01;;;;;;;7.15;2.67;;;;;;;22.08;63.95;97704.91;5031730;28;20033;-70
2022/08/15 01:06:27;;;;;;;5.55;2.50;;;;;;;22.02;64.76;97697.88;5031583;28;20064;-70
2022/08/15 01:08:53;;;;;;;5.03;2.40;;;;;;;22.08;64.76;97687.56;5032795;28;20478;-70
2022/08/15 01:11:25;;;;;;;6.97;2.75;;;;;;;22.16;65.71;97691.56;5031511;28;20029;-70
2022/08/15 01:13:53;;;;;;;8.85;2.65;;;;;;;22.20;65.16;97684.34;5031877;28;20018;-70
2022/08/15 01:16:20;;;;;;;4.40;2.40;;;;;;;22.21;63.82;97694.25;5032140;28;20033;-70
2022/08/15 01:18:45;;;;;;;6.93;2.88;;;;;;;22.18;63.73;97686.56;5032034;28;20099;-70
2022/08/15 01:21:26;;;;;;;5.95;2.55;;;;;;;21.99;66.99;97667.38;5031740;28;20049;-70
2022/08/15 01:24:35;;;;;;;4.30;2.55;;;;;;;22.05;68.12;97689.00;5050735;28;20025;-70
2022/08/15 01:27:00;;;;;;;;;;;;;;;21.97;69.83;97697.97;5002782;28;20045;-70
2022/08/15 01:29:27;;;;;;;7.90;2.80;;;;;;;21.86;70.83;97691.03;5029221;28;20293;-70
2022/08/15 01:31:52;;;;;;;5.22;2.70;;;;;;;21.73;70.32;97689.91;5029725;28;20389;-70
2022/08/15 01:34:17;;;;;;;3.58;2.40;;;;;;;21.62;72.79;97691.22;5031484;28;20017;-70
2022/08/15 01:36:44;;;;;;;4.22;2.60;;;;;;;21.67;73.99;97699.38;5033311;28;20033;-70
2022/08/15 01:39:14;;;;;;;8.23;2.50;;;;;;;21.59;74.35;97694.56;5030628;28;20025;-70
2022/08/15 01:41:55;;;;;;;11.68;2.95;;;;;;;21.49;73.58;97697.50;5093945;22;20094;-73
2022/08/15 01:44:53;;;;;;;5.43;2.70;;;;;;;21.48;75.89;97690.34;5063563;28;20040;-73
2022/08/15 01:47:25;;;;;;;5.15;2.72;;;;;;;21.52;73.33;97705.16;5035923;28;20404;-73
2022/08/15 01:50:00;;;;;;;6.63;2.70;;;;;;;21.54;73.90;97703.72;5067102;28;20048;-72
2022/08/15 01:52:31;;;;;;;6.55;2.65;;;;;;;21.54;72.92;97709.22;5064118;28;20537;-73
2022/08/15 01:54:58;;;;;;;5.90;2.63;;;;;;;21.59;72.22;97703.63;5060687;28;20497;-72
2022/08/15 01:57:24;;;;;;;8.73;3.17;;;;;;;21.53;74.08;97721.34;5065753;28;20028;-73
2022/08/15 02:00:16;;;;;;;7.78;2.80;;;;;;;21.34;75.46;97706.78;5064762;28;20439;-73
2022/08/15 02:02:41;;;;;;;4.50;2.58;;;;;;;21.42;75.19;97712.44;5062262;28;20088;-70
2022/08/15 02:05:07;;;;;;;3.85;2.78;;;;;;;21.39;76.71;97706.72;5061184;28;20154;-70
2022/08/15 02:07:33;;;;;;;4.55;2.80;;;;;;;21.39;76.86;97709.50;5069425;28;20032;-74
2022/08/15 02:09:58;;;;;;;6.15;3.00;;;;;;;21.18;76.33;97684.22;5069894;28;20032;-70
2022/08/15 02:12:31;;;;;;;6.40;2.92;;;;;;;21.29;78.39;97704.94;5069883;28;20034;-72
2022/08/15 02:14:59;;;;;;;4.10;2.78;;;;;;;21.35;75.03;97714.75;5067988;28;20025;-73
2022/08/15 02:17:24;;;;;;;7.57;2.60;;;;;;;21.38;74.46;97713.38;5071006;28;20040;-73
2022/08/15 02:19:51;;;;;;;4.40;2.50;;;;;;;21.34;74.42;97706.78;5067933;28;20036;-73
2022/08/15 02:22:19;;;;;;;9.43;3.03;;;;;;;21.24;75.54;97714.06;5069428;28;20051;-69
2022/08/15 02:24:45;;;;;;;5.47;2.95;;;;;;;21.21;74.59;97722.94;5054666;28;20505;-73
2022/08/15 02:27:11;;;;;;;7.88;2.72;;;;;;;21.20;73.91;97717.75;5067812;28;20041;-72
2022/08/15 02:29:36;;;;;;;4.07;2.90;;;;;;;21.20;74.68;97728.75;5067552;28;20031;-72
2022/08/15 02:32:08;;;;;;;5.05;2.50;;;;;;;21.15;74.19;97713.13;5065521;28;20024;-73
2022/08/15 02:34:34;;;;;;;6.45;2.80;;;;;;;21.34;72.89;97718.59;5068691;28;20494;-73
2022/08/15 02:37:03;;;;;;;10.02;2.83;;;;;;;21.47;72.41;97730.00;5070377;28;20028;-73
2022/08/15 02:39:28;;;;;;;5.68;2.63;;;;;;;21.36;72.30;97716.38;5064559;28;20032;-72
2022/08/15 02:41:54;;;;;;;6.40;2.40;;;;;;;21.24;72.09;97718.75;5067860;28;20051;-73
2022/08/15 02:44:21;;;;;;;5.10;2.90;;;;;;;21.35;71.54;97722.16;5065409;28;20036;-72
2022/08/15 02:46:52;;;;;;;4.25;2.60;;;;;;;21.26;72.06;97715.72;5071783;28;20039;-72
2022/08/15 02:49:19;;;;;;;5.43;2.83;;;;;;;21.30;73.15;97738.75;5069122;28;20122;-73
2022/08/15 02:51:46;;;;;;;4.88;2.50;;;;;;;21.13;72.57;97707.09;5066317;28;20023;-69
2022/08/15 02:54:12;;;;;;;8.05;2.78;;;;;;;21.25;73.39;97736.91;5068514;28;20016;-73
2022/08/15 02:56:38;;;;;;;6.05;2.58;;;;;;;21.11;73.70;97714.03;5067981;28;20040;-73
2022/08/15 02:59:07;;;;;;;4.80;2.53;;;;;;;21.18;74.22;97734.53;5060400;28;20052;-73
2022/08/15 03:01:37;;;;;;;;;;;;;;;21.12;73.93;97737.69;5062690;28;20478;-70
2022/08/15 03:04:04;;;;;;;5.47;2.70;;;;;;;21.09;74.41;97739.09;5061816;28;19953;-72
2022/08/15 03:06:30;;;;;;;11.23;2.85;;;;;;;20.97;74.40;97716.72;5066299;28;20028;-73
2022/08/15 03:09:00;;;;;;;4.93;2.67;;;;;;;20.99;74.19;97722.75;5064589;28;20028;-73
2022/08/15 03:11:25;;;;;;;5.63;2.67;;;;;;;21.01;75.52;97725.97;5063571;28;20556;-72
2022/08/15 03:13:51;;;;;;;9.75;2.78;;;;;;;20.82;77.40;97709.50;5063873;28;20115;-72
2022/08/15 03:16:17;;;;;;;7.07;2.50;;;;;;;20.93;77.97;97737.66;5063141;28;20158;-73
2022/08/15 03:18:42;;;;;;;9.70;2.67;;;;;;;20.86;75.80;97728.97;5061964;28;20020;-73
2022/08/15 03:21:12;;;;;;;6.88;2.85;;;;;;;20.63;75.30;97693.00;5063849;28;20028;-71
2022/08/15 03:23:44;;;;;;;5.03;2.80;;;;;;;20.86;75.94;97729.78;5078543;28;20108;-72
2022/08/15 03:26:12;;;;;;;5.53;2.63;;;;;;;20.85;75.41;97721.84;5064757;28;20024;-73
2022/08/15 03:28:37;;;;;;;5.07;2.70;;;;;;;20.81;75.46;97720.81;5071224;28;20448;-73
2022/08/15 03:31:04;;;;;;;6.68;2.50;;;;;;;20.71;76.12;97708.81;5067815;28;20044;-73
2022/08/15 03:33:32;;;;;;;6.82;3.08;;;;;;;20.78;76.80;97723.03;5073526;28;20091;-73
2022/08/15 03:35:59;;;;;;;6.40;2.70;;;;;;;20.64;76.43;97715.81;5069123;28;20126;-73
2022/08/15 03:38:24;;;;;;;4.47;2.65;;;;;;;20.56;76.61;97707.09;5070014;28;20032;-70
2022/08/15 03:40:51;;;;;;;6.85;2.95;;;;;;;20.64;76.47;97735.84;5067676;28;20025;-73
2022/08/15 03:43:22;;;;;;;4.90;2.70;;;;;;;20.56;78.02;97731.00;5071468;28;20043;-73
2022/08/15 03:45:51;;;;;;;3.85;2.55;;;;;;;20.45;78.08;97719.31;5069302;28;20024;-72
2022/08/15 03:48:21;;;;;;;5.30;2.92;;;;;;;20.51;79.37;97733.78;5071708;28;20028;-71
2022/08/15 03:50:48;;;;;;;4.53;2.83;;;;;;;20.41;81.58;97734.75;5065946;28;20070;-72
2022/08/15 03:53:14;;;;;;;4.55;2.88;;;;;;;20.17;82.89;97715.53;5067997;28;20017;-72
2022/08/15 03:55:40;;;;;;;6.38;2.80;;;;;;;20.35;81.67;97739.47;5070084;28;20321;-66
2022/08/15 03:58:07;;;;;;;5.28;3.03;;;;;;;20.26;82.93;97716.53;5063467;28;20028;-67
2022/08/15 04:00:38;;;;;;;4.43;2.67;;;;;;;20.39;84.73;97747.16;5061930;28;20031;-67
2022/08/15 04:03:09;;;;;;;6.30;2.70;;;;;;;20.33;86.37;97743.63;5060376;28;20031;-67
2022/08/15 04:05:35;;;;;;;6.45;3.22;;;;;;;20.26;85.48;97749.47;5064969;28;20047;-69
2022/08/15 04:08:02;;;;;;;6.38;2.85;;;;;;;20.24;84.52;97750.88;5070066;28;20032;-70
2022/08/15 04:10:28;;;;;;;8.60;3.00;;;;;;;20.23;84.51;97739.09;5065373;28;20424;-70
2022/08/15 04:12:54;;;;;;;4.65;3.03;;;;;;;20.17;83.80;97728.44;5068515;28;20035;-70
2022/08/15 04:15:19;;;;;;;4.47;2.97;;;;;;;20.19;83.42;97735.28;5066536;28;20033;-68
2022/08/15 04:17:45;;;;;;;5.30;2.88;;;;;;;20.31;84.93;97746.69;5065874;28;20032;-67
2022/08/15 04:20:11;;;;;;;6.72;3.00;;;;;;;20.31;85.09;97746.69;5064960;28;20021;-64
2022/08/15 04:22:46;;;;;;;5.60;3.08;;;;;;;20.29;84.83;97751.66;5062275;28;20032;-65
2022/08/15 04:25:18;;;;;;;4.40;2.97;;;;;;;20.29;84.29;97757.13;5060111;28;20029;-66
2022/08/15 04:27:45;;;;;;;5.22;2.75;;;;;;;20.30;84.50;97756.03;5059998;28;20055;-68
2022/08/15 04:30:11;;;;;;;5.95;2.97;;;;;;;20.26;85.95;97744.00;5072905;28;20028;-67
2022/08/15 04:32:38;;;;;;;4.40;3.13;;;;;;;20.32;85.40;97758.47;5066323;28;20030;-66
2022/08/15 04:35:04;;;;;;;5.68;3.17;;;;;;;20.20;84.97;97736.09;5064486;28;20405;-66
2022/08/15 04:37:30;;;;;;;4.13;3.05;;;;;;;20.32;83.77;97751.06;5068925;28;20025;-66
2022/08/15 04:39:56;;;;;;;7.32;3.08;;;;;;;20.27;83.08;97745.63;5063316;28;20091;-66
2022/08/15 04:42:24;;;;;;;4.43;2.95;;;;;;;20.42;82.96;97763.03;5066239;28;20028;-64
2022/08/15 04:44:50;;;;;;;8.35;3.03;;;;;;;20.46;81.66;97747.59;5065171;28;20367;-65
2022/08/15 04:47:16;;;;;;;3.58;2.80;;;;;;;20.52;82.39;97751.94;5061444;28;20043;-61
2022/08/15 04:49:42;;;;;;;5.65;3.00;;;;;;;20.44;82.45;97725.13;5071764;28;20055;-71
2022/08/15 04:52:14;;;;;;;5.70;3.10;;;;;;;20.57;83.12;97749.16;5075390;28;20024;-70
2022/08/15 04:54:40;;;;;;;6.70;3.00;;;;;;;20.58;82.82;97762.59;5071598;28;20367;-65
2022/08/15 04:57:06;;;;;;;4.70;3.05;;;;;;;20.68;81.71;97756.16;5069100;28;20028;-72
2022/08/15 04:59:32;;;;;;;7.38;3.47;;;;;;;20.71;82.77;97743.75;5068644;28;20024;-72
2022/08/15 05:01:58;;;;;;;8.52;3.13;;;;;;;20.75;82.04;97748.38;5067800;28;20111;-72
2022/08/15 05:04:23;;;;;;;6.05;2.50;;;;;;;20.68;81.75;97708.63;5071327;28;20059;-71
2022/08/15 05:06:49;;;;;;;4.32;2.67;;;;;;;20.87;82.44;97745.16;5063640;28;20108;-70
2022/08/15 05:09:14;;;;;;;3.17;2.33;;;;;;;20.81;85.91;97757.34;5070186;28;20021;-71
2022/08/15 05:11:39;;;;;;;6.80;2.38;;;;;;;20.83;86.15;97751.53;5063460;28;20203;-69
2022/08/15 05:14:05;;;;;;;4.35;2.22;;;;;;;20.92;87.55;97771.78;5069511;28;20023;-62
2022/08/15 05:16:32;;;;;;;4.57;2.13;;;;;;;20.88;87.56;97749.56;5067519;28;20036;-63
2022/08/15 05:18:59;;;;;;;4.70;2.40;;;;;;;20.89;89.39;97766.88;5064959;28;20054;-62
2022/08/15 05:21:24;;;;;;;5.93;1.85;;;;;;;20.89;88.55;97747.63;5067362;28;20124;-62
2022/08/15 05:23:50;;;;;;;4.40;1.80;;;;;;;21.08;87.87;97764.94;5070868;28;20712;-62
2022/08/15 05:26:16;;;;;;;4.82;1.95;;;;;;;21.17;86.57;97768.66;5066413;28;20024;-63
2022/08/15 05:28:41;;;;;;;5.97;1.70;;;;;;;21.13;87.29;97770.38;5060044;28;21600;-65
2022/08/15 05:31:09;;;;;;;3.13;1.67;;;;;;;21.24;86.12;97771.84;5060509;28;20033;-65
2022/08/15 05:33:35;;;;;;;4.57;2.20;;;;;;;21.04;87.55;97758.41;5069667;28;20085;-67
2022/08/15 05:36:02;;;;;;;5.28;2.35;;;;;;;21.16;87.64;97768.97;5068946;28;20421;-65
2022/08/15 05:38:58;;;;;;;4.45;2.10;;;;;;;20.86;91.80;97772.97;5067287;28;20481;-61
2022/08/15 05:41:33;;;;;;;4.75;1.60;;;;;;;20.87;92.57;97760.84;5061378;28;20044;-63
2022/08/15 05:44:12;;;;;;;2.65;1.63;;;;;;;20.88;91.84;97755.06;5073427;28;20021;-72
2022/08/15 05:47:04;;;;;;;3.55;1.70;;;;;;;21.15;91.52;97762.66;5072540;28;20028;-76
2022/08/15 05:49:39;;;;;;;2.78;1.75;;;;;;;21.33;86.58;97744.50;5066493;28;20472;-68
2022/08/15 05:52:23;;;;;;;7.75;1.50;;;;;;;21.29;88.18;97757.19;5068687;28;20028;-68
2022/08/15 05:54:48;;;;;;;4.40;1.75;;;;;;;21.48;86.54;97761.91;5065501;28;20032;-68
2022/08/15 05:57:33;;;;;;;2.67;1.20;;;;;;;21.41;87.31;97765.03;5066510;28;20027;-66
2022/08/15 06:00:05;;;;;;;4.47;1.58;;;;;;;21.38;87.65;97766.47;5065880;28;20071;-64
2022/08/15 06:02:45;;;;;;;3.03;1.60;;;;;;;21.40;87.01;97768.91;5067519;28;20023;-70
2022/08/15 06:05:31;;;;;;;3.55;1.60;;;;;;;21.18;89.21;97775.78;5071395;28;20501;-65
2022/08/15 06:08:00;;;;;;;2.72;1.50;;;;;;;21.03;88.18;97715.50;5071017;28;20059;-67
2022/08/15 06:10:33;;;;;;;2.53;1.48;;;;;;;21.54;87.07;97769.78;5072437;28;20023;-67
2022/08/15 06:13:14;;;;;;;2.40;1.67;;;;;;;21.66;84.17;97758.28;5066598;28;20508;-65
2022/08/15 06:15:46;;;;;;;2.47;1.65;;;;;;;21.83;82.72;97766.81;5071459;28;20494;-63
2022/08/15 06:18:14;;;;;;;2.60;1.50;;;;;;;21.85;83.04;97769.25;5066204;28;20028;-65
2022/08/15 06:21:06;;;;;;;3.25;1.73;;;;;;;21.60;84.80;97760.31;5064972;28;20109;-67
2022/08/15 06:23:54;;;;;;;2.30;1.40;;;;;;;21.86;81.23;97754.38;5084886;28;20489;-67
2022/08/15 06:26:56;;;;;;;6.13;1.83;;;;;;;21.93;81.89;97760.31;5064672;28;20051;-66
2022/08/15 06:29:52;;;;;;;2.90;1.60;;;;;;;21.99;82.29;97761.03;5070868;28;20019;-67
2022/08/15 06:32:40;;;;;;;2.47;1.70;;;;;;;21.94;82.65;97750.91;5070651;28;20029;-67
2022/08/15 06:35:31;;;;;;;4.50;1.52;;;;;;;22.14;79.20;97757.16;5071570;28;20027;-67
2022/08/15 06:38:14;;;;;;;3.83;1.50;;;;;;;21.87;81.85;97756.81;5079949;28;20035;-67
2022/08/15 06:40:53;;;;;;;4.72;1.50;;;;;;;21.60;83.60;97743.78;5069754;28;20028;-66
2022/08/15 06:43:18;;;;;;;4.03;1.83;;;;;;;21.88;82.89;97741.13;5069363;28;20600;-68
2022/08/15 06:45:48;;;;;;;4.25;2.00;;;;;;;21.71;84.08;97747.19;5072538;28;20113;-68
2022/08/15 06:48:16;;;;;;;5.93;1.88;;;;;;;22.01;82.09;97759.59;5066547;28;20016;-66
2022/08/15 06:50:47;;;;;;;6.28;1.67;;;;;;;21.80;83.83;97772.13;5067680;28;20040;-68
2022/08/15 06:53:26;;;;;;;1.92;1.40;;;;;;;21.78;82.70;97777.09;5073365;28;20024;-68
2022/08/15 06:55:52;;;;;;;;;;;;;;;21.67;85.46;97780.03;5069234;28;20028;-68
2022/08/15 06:58:51;;;;;;;3.85;1.80;;;;;;;21.89;81.98;97789.56;5069590;28;19957;-68
2022/08/15 07:01:37;;;;;;;1.93;1.30;;;;;;;21.92;82.46;97783.44;5069064;28;20107;-67
2022/08/15 07:04:25;;;;;;;4.32;1.63;;;;;;;21.89;82.55;97784.06;5069589;28;20290;-67
2022/08/15 07:07:09;;;;;;;3.60;1.52;;;;;;;21.76;84.23;97779.31;5070037;28;20514;-67
2022/08/15 07:09:53;;;;;;;4.25;1.80;;;;;;;21.73;84.60;97796.44;5066810;28;20032;-68
2022/08/15 07:12:35;;;;;;;3.00;1.70;;;;;;;21.70;85.24;97800.63;5068133;28;20545;-67
2022/08/15 07:15:20;;;;;;;2.65;1.80;;;;;;;21.82;84.17;97805.66;5069592;28;20040;-67
2022/08/15 07:17:50;;;;;;;4.72;1.88;;;;;;;21.53;87.15;97803.91;5068083;28;20060;-67
2022/08/15 07:20:15;;;;;;;;;;;;;;;21.51;89.73;97814.41;5066885;28;20064;-68
2022/08/15 07:22:41;;;;;;;4.63;1.63;;;;;;;21.61;91.74;97805.16;5072136;28;19951;-68
2022/08/15 07:25:13;;;;;;;3.47;1.85;;;;;;;21.57;89.82;97810.47;5069404;28;20024;-69
2022/08/15 07:27:39;;;;;;;5.57;1.77;;;;;;;21.69;94.59;97809.97;5064623;28;20064;-68
2022/08/15 07:30:20;;;;;;;4.25;1.70;;;;;;;21.79;92.26;97811.75;5065383;28;20110;-69
2022/08/15 07:32:52;;;;;;;3.55;1.60;;;;;;;21.77;89.39;97819.50;5068740;28;20025;-70
2022/08/15 07:35:33;;;;;;;3.03;1.73;;;;;;;21.84;90.57;97815.25;5068502;28;20033;-70
2022/08/15 07:38:02;;;;;;;3.22;1.83;;;;;;;21.71;89.74;97799.50;5066622;28;20106;-71
2022/08/15 07:40:36;;;;;;;4.38;1.88;;;;;;;22.00;85.57;97813.03;5066589;28;20021;-72
2022/08/15 07:43:05;;;;;;;6.25;1.58;;;;;;;22.22;84.45;97814.38;5071450;28;20032;-71
2022/08/15 07:45:33;;;;;;;;;;;;;;;22.50;80.58;97820.69;5066553;28;20119;-70
2022/08/15 07:48:03;;;;;;;7.82;1.40;;;;;;;22.46;80.88;97825.22;5069518;28;19926;-68
2022/08/15 07:50:45;;;;;;;6.28;1.90;;;;;;;22.50;81.80;97827.03;5069326;28;20028;-68
2022/08/15 07:53:16;;;;;;;2.60;1.50;;;;;;;22.57;78.43;97834.09;5068066;28;20036;-67
2022/08/15 07:56:04;;;;;;;6.03;2.45;;;;;;;22.68;78.90;97832.75;5064174;28;20427;-73
2022/08/15 07:58:32;;;;;;;4.40;1.92;;;;;;;22.87;77.04;97829.91;5056315;28;20037;-69
2022/08/15 08:01:25;;;;;;;5.05;1.70;;;;;;;23.20;73.09;97822.31;5065554;28;20038;-70
2022/08/15 08:03:57;;;;;;;3.63;1.65;;;;;;;23.34;72.28;97817.59;5063580;28;20103;-70
2022/08/15 08:06:37;;;;;;;3.63;1.77;;;;;;;23.58;69.90;97813.75;5068232;28;20031;-70
2022/08/15 08:09:22;;;;;;;3.20;1.60;;;;;;;23.71;70.25;97826.69;5068658;28;20090;-71
2022/08/15 08:11:53;;;;;;;4.50;1.60;;;;;;;24.32;67.06;97823.50;5071935;28;20032;-70
2022/08/15 08:14:41;;;;;;;2.78;1.90;;;;;;;24.68;64.46;97831.66;5067312;28;20024;-70
2022/08/15 08:17:24;;;;;;;3.47;1.63;;;;;;;25.03;62.79;97837.31;5063772;28;20050;-69
2022/08/15 08:20:03;;;;;;;4.63;1.75;;;;;;;25.65;59.30;97831.56;5058577;28;20028;-69
2022/08/15 08:23:04;;;;;;;4.80;1.80;;;;;;;26.27;57.17;97829.53;5070304;28;20029;-68
2022/08/15 08:25:42;;;;;;;4.90;1.60;;;;;;;27.67;53.90;97824.94;5032067;28;20047;-66
2022/08/15 08:28:27;;;;;;;2.28;1.60;;;;;;;30.93;44.89;97824.78;5070243;28;20028;-72
2022/08/15 08:31:21;;;;;;;2.65;1.38;;;;;;;33.47;39.81;97814.91;5067120;28;20508;-71
2022/08/15 08:34:11;;;;;;;5.80;1.42;;;;;;;34.94;36.80;97819.38;5066559;28;20042;-71
2022/08/15 08:37:02;;;;;;;3.20;1.45;;;;;;;35.85;34.77;97832.88;5069502;28;20047;-66
2022/08/15 08:39:52;;;;;;;4.63;1.70;;;;;;;35.76;33.96;97833.22;5062161;28;20032;-66
2022/08/15 08:42:41;;;;;;;2.33;1.42;;;;;;;33.94;36.91;97835.19;5068693;28;20035;-66
2022/08/15 08:45:13;;;;;;;2.80;1.70;;;;;;;36.04;34.43;97828.91;5068597;28;20032;-70
2022/08/15 08:47:58;;;;;;;3.60;1.67;;;;;;;33.04;37.52;97835.88;5068297;28;20025;-69
2022/08/15 08:50:32;;;;;;;3.03;1.73;;;;;;;33.17;38.57;97834.50;5066412;28;20020;-68
2022/08/15 08:53:22;;;;;;;1.50;1.15;;;;;;;36.08;34.06;97826.94;5064558;28;20485;-68
2022/08/15 08:55:52;;;;;;;6.47;2.30;;;;;;;35.66;33.72;97831.16;5064794;28;20596;-66
2022/08/15 08:58:25;;;;;;;2.45;1.55;;;;;;;34.30;35.98;97824.38;5066483;28;20028;-66
2022/08/15 09:00:52;;;;;;;3.00;1.52;;;;;;;35.83;34.11;97829.63;5067114;28;20032;-67
2022/08/15 09:03:29;;;;;;;3.97;1.38;;;;;;;37.79;31.61;97826.19;5060738;28;20489;-67
2022/08/15 09:05:57;;;;;;;3.17;1.25;;;;;;;36.78;31.83;97814.19;5066795;28;20032;-67
2022/08/15 09:08:43;;;;;;;;;;;;;;;36.23;33.07;97822.94;5064134;28;20429;-67
2022/08/15 09:11:21;;;;;;;2.42;1.35;;;;;;;36.46;31.28;97827.44;5066817;28;19916;-67
2022/08/15 09:13:49;;;;;;;2.60;1.30;;;;;;;35.61;32.83;97829.53;5078121;28;20021;-67
2022/08/15 09:16:21;;;;;;;5.10;1.30;;;;;;;34.92;33.02;97824.59;5062714;28;20485;-67
2022/08/15 09:18:55;;;;;;;2.10;1.10;;;;;;;34.36;34.80;97822.84;5065405;28;20082;-67
2022/08/15 09:21:21;;;;;;;4.32;1.30;;;;;;;35.62;32.50;97816.28;5066935;28;20050;-66
2022/08/15 09:23:48;;;;;;;2.78;1.38;;;;;;;33.64;34.85;97823.97;5069376;28;20048;-66
2022/08/15 09:26:38;;;;;;;2.42;1.65;;;;;;;33.38;35.52;97820.81;5066149;28;20024;-67
2022/08/15 09:29:14;;;;;;;2.70;0.95;;;;;;;31.39;38.22;97824.28;5063569;28;20530;-68
2022/08/15 09:31:41;;;;;;;2.20;1.00;;;;;;;31.62;37.38;97810.38;5068920;28;20050;-66
2022/08/15 09:34:29;;;;;;;2.00;1.23;;;;;;;32.69;36.51;97817.28;5065376;28;20035;-67
2022/08/15 09:37:06;;;;;;;4.60;1.07;;;;;;;32.87;35.79;97809.97;5063810;28;20024;-67
2022/08/15 09:39:52;;;;;;;1.05;0.80;;;;;;;32.44;36.46;97812.03;5058123;28;20315;-66
2022/08/15 09:42:55;;;;;;;8.32;1.35;;;;;;;30.75;38.59;97813.13;5065267;28;20035;-66
2022/08/15 09:45:55;;;;;;;2.15;0.90;;;;;;;30.00;40.54;97815.88;5062419;28;20064;-66
2022/08/15 09:48:47;;;;;;;3.03;1.80;;;;;;;30.08;40.70;97812.16;5061493;28;20445;-67
2022/08/15 09:51:21;;;;;;;5.10;3.03;;;;;;;32.56;36.75;97807.44;5064903;28;20044;-67
2022/08/15 09:54:20;;;;;;;1.45;1.15;;;;;;;32.81;35.55;97807.88;5066570;28;20036;-67
2022/08/15 09:56:46;;;;;;;3.03;0.98;;;;;;;30.97;38.46;97805.31;5064903;28;20028;-67
2022/08/15 09:59:19;;;;;;;1.85;1.13;;;;;;;30.60;39.16;97813.13;5060922;28;20071;-67
2022/08/15 10:01:52;;;;;;;3.13;0.80;;;;;;;29.25;40.65;97806.94;5066982;28;20037;-67
2022/08/15 10:04:24;;;;;;;3.20;1.20;;;;;;;30.48;38.07;97797.28;5061898;28;20028;-67
2022/08/15 10:07:02;;;;;;;1.38;0.85;;;;;;;32.25;34.56;97789.66;5061808;28;20478;-67
2022/08/15 10:09:33;;;;;;;2.67;0.80;;;;;;;34.50;32.13;97794.91;5064239;28;20386;-66
2022/08/15 10:11:58;;;;;;;1.50;0.88;;;;;;;33.00;33.62;97793.78;5060483;28;20024;-66
2022/08/15 10:14:27;;;;;;;3.63;0.80;;;;;;;36.25;29.61;97781.13;5064213;28;20035;-66
2022/08/15 10:16:55;;;;;;;0.90;0.60;;;;;;;37.38;28.36;97787.16;5060559;28;20031;-66
2022/08/15 10:19:30;;;;;;;1.88;0.85;;;;;;;36.97;27.97;97782.00;5063055;28;20604;-66
2022/08/15 10:22:00;;;;;;;1.25;0.63;;;;;;;37.56;27.41;97780.72;5060215;28;20509;-66
2022/08/15 10:24:32;;;;;;;3.55;0.90;;;;;;;37.49;27.67;97784.31;5066166;28;20021;-67
2022/08/15 10:27:12;;;;;;;1.00;0.63;;;;;;;38.27;26.43;97779.56;5064882;28;20792;-67
2022/08/15 10:30:08;;;;;;;0.70;0.52;;;;;;;36.18;28.38;97764.19;5065822;28;20389;-67
2022/08/15 10:32:40;;;;;;;2.25;0.88;;;;;;;35.52;29.46;97784.84;5069079;28;20024;-67
2022/08/15 10:35:16;;;;;;;0.93;0.70;;;;;;;37.37;27.57;97770.66;5066373;28;20073;-67
2022/08/15 10:37:59;;;;;;;0.80;0.65;;;;;;;36.62;28.26;97774.34;5082969;28;20298;-67
2022/08/15 10:40:52;;;;;;;2.63;0.70;;;;;;;36.18;28.51;97775.47;5061564;28;20090;-66
2022/08/15 10:43:52;;;;;;;1.13;0.70;;;;;;;35.94;28.66;97769.34;5069252;28;20035;-67
2022/08/15 10:46:48;;;;;;;1.80;0.73;;;;;;;35.07;29.81;97767.31;5065495;28;20071;-67
2022/08/15 10:49:42;;;;;;;1.38;0.80;;;;;;;35.50;28.78;97767.56;5069450;28;20652;-67
2022/08/15 10:52:32;;;;;;;1.05;0.80;;;;;;;35.85;28.45;97763.31;5068454;28;20121;-67
2022/08/15 10:55:23;;;;;;;1.45;0.88;;;;;;;36.62;27.82;97757.44;5062370;28;20108;-68
2022/08/15 10:57:58;;;;;;;1.35;0.90;;;;;;;37.65;26.46;97761.31;5068964;28;20543;-68
2022/08/15 11:00:37;;;;;;;1.23;0.80;;;;;;;38.01;26.17;97759.13;5063033;28;20024;-67
2022/08/15 11:03:10;;;;;;;2.40;0.98;;;;;;;38.35;25.88;97761.34;5069719;28;20054;-67
2022/08/15 11:05:36;;;;;;;2.22;0.90;;;;;;;37.37;26.72;97756.56;5067946;28;20028;-67
2022/08/15 11:08:02;;;;;;;2.78;0.75;;;;;;;34.60;30.10;97752.06;5068865;28;20493;-67
2022/08/15 11:10:32;;;;;;;1.60;0.75;;;;;;;36.35;27.17;97746.53;5062797;28;20036;-66
2022/08/15 11:13:06;;;;;;;1.60;0.82;;;;;;;36.64;27.29;97750.19;5069293;28;20074;-66
2022/08/15 11:15:46;;;;;;;3.80;0.93;;;;;;;36.51;28.09;97745.34;5067309;28;20031;-67
2022/08/15 11:18:11;;;;;;;5.30;0.90;;;;;;;35.26;29.10;97740.09;5062472;28;20035;-67
2022/08/15 11:20:44;;;;;;;0.85;0.60;;;;;;;34.36;30.76;97745.03;5063539;28;20024;-66
2022/08/15 11:23:10;;;;;;;1.88;0.80;;;;;;;34.44;30.57;97749.50;5068295;28;20028;-66
2022/08/15 11:25:39;;;;;;;2.38;0.80;;;;;;;36.07;28.67;97746.50;5059642;28;20028;-66
2022/08/15 11:28:22;;;;;;;1.45;0.85;;;;;;;34.27;30.35;97741.75;5063414;28;20116;-66
2022/08/15 11:30:59;;;;;;;3.70;1.20;;;;;;;32.62;32.58;97721.94;5064530;28;20052;-67
2022/08/15 11:33:30;;;;;;;2.13;1.00;;;;;;;34.77;30.05;97735.75;5064120;28;20090;-67
2022/08/15 11:36:09;;;;;;;1.70;0.90;;;;;;;35.87;28.16;97712.22;5067570;28;20111;-67
2022/08/15 11:38:37;;;;;;;4.45;1.10;;;;;;;35.16;29.07;97723.97;5060841;28;20020;-67
2022/08/15 11:41:03;;;;;;;2.33;1.50;;;;;;;36.18;28.02;97727.59;5063556;28;20029;-67
2022/08/15 11:43:31;;;;;;;2.20;1.10;;;;;;;36.92;26.86;97731.66;5062735;28;20322;-67
2022/08/15 11:45:57;;;;;;;1.73;0.90;;;;;;;34.67;29.65;97738.09;5062134;28;20024;-67
2022/08/15 11:48:33;;;;;;;3.55;1.20;;;;;;;34.35;30.00;97739.78;5067769;28;20027;-67
2022/08/15 11:51:22;;;;;;;2.28;1.02;;;;;;;34.99;29.09;97731.88;5056991;28;20028;-67
2022/08/15 11:54:19;;;;;;;1.40;0.95;;;;;;;35.86;28.36;97733.13;5062605;28;20036;-67
2022/08/15 11:57:06;;;;;;;1.75;0.82;;;;;;;38.13;26.72;97719.13;5066908;28;20029;-67
2022/08/15 11:59:55;;;;;;;1.10;0.95;;;;;;;39.28;24.41;97720.16;5063749;28;20029;-68
2022/08/15 12:02:21;;;;;;;1.75;1.00;;;;;;;39.51;24.21;97722.31;5059353;28;20131;-69
2022/08/15 12:04:48;;;;;;;1.20;0.90;;;;;;;38.84;24.28;97721.81;5069153;28;20095;-69
2022/08/15 12:07:26;;;;;;;1.25;1.10;;;;;;;38.53;24.62;97725.31;5064263;28;20021;-67